13.1C
небольшой дождь
небольшой дождь
Дата и времяТемператураДавление, мм рт.ст.Влажность, %Осадки
МинимумМаксимум
25.07.2024 17:0012.87C12.97C75190небольшой дождь
25.07.2024 20:0012.63C12.76C75293небольшой дождь
25.07.2024 23:0012.43C12.43C75295небольшой дождь
26.07.2024 02:0012.45C12.45C75396пасмурно
26.07.2024 05:0012.51C12.51C75496пасмурно
26.07.2024 08:0013.8C13.8C75591пасмурно
26.07.2024 11:0014.81C14.81C75685пасмурно
26.07.2024 14:0016.77C16.77C75675пасмурно
26.07.2024 17:0018.26C18.26C75668пасмурно
26.07.2024 20:0016.16C16.16C75681небольшой дождь
26.07.2024 23:0015.31C15.31C75686пасмурно
27.07.2024 02:0013.18C13.18C75693пасмурно
27.07.2024 05:0013.45C13.45C75687пасмурно
27.07.2024 08:0019.02C19.02C75567пасмурно
27.07.2024 11:0024.63C24.63C75353облачно с прояснениями
27.07.2024 14:0026.76C26.76C75354облачно с прояснениями
27.07.2024 17:0027.79C27.79C75258небольшой дождь
27.07.2024 20:0019.84C19.84C75292сильный дождь
27.07.2024 23:0019.47C19.47C75293небольшой дождь
28.07.2024 02:0018.57C18.57C75196дождь
28.07.2024 05:0018.51C18.51C75096небольшой дождь
28.07.2024 08:0021.02C21.02C75090небольшой дождь
28.07.2024 11:0017.26C17.26C75190пасмурно
28.07.2024 14:0022.1C22.1C75160пасмурно
28.07.2024 17:0022.3C22.3C75152пасмурно
28.07.2024 20:0018.15C18.15C75167облачно с прояснениями
28.07.2024 23:0015.2C15.2C75173переменная облачность
29.07.2024 02:0014.22C14.22C75175переменная облачность
29.07.2024 05:0015.34C15.34C75173облачно с прояснениями
29.07.2024 08:0019.48C19.48C75160пасмурно
29.07.2024 11:0018.39C18.39C75169пасмурно
29.07.2024 14:0022.58C22.58C75155небольшой дождь
29.07.2024 17:0020.45C20.45C75174дождь
29.07.2024 20:0017.46C17.46C75183небольшой дождь
29.07.2024 23:0014.61C14.61C75284небольшая облачность
30.07.2024 02:0014.72C14.72C75287переменная облачность
30.07.2024 05:0014.86C14.86C75288облачно с прояснениями
30.07.2024 08:0017.77C17.77C75372пасмурно
30.07.2024 11:0021.67C21.67C75254облачно с прояснениями
30.07.2024 14:0022.36C22.36C75151облачно с прояснениями
Дата и время наблюдения: 25.07.2024 15:02:21